Terminal Aerodrome Forecast
Issued by NWS Twin Cities, MN

Home | Current Version | Previous Version | Text Only | Print | Product List | Glossary On
Versions: 1 2 3 4 5 6 7 8 9 10 11 12 13 14 15 16 17 18 19
010
FTUS43 KMPX 231721
TAFEAU
TAF
KEAU 231721Z 2318/2418 29014G22KT P6SM SCT040 BKN060 BKN090
     FM232100 30014KT P6SM VCTS SCT040 BKN060CB
     FM232300 30013KT P6SM VCSH SCT050 BKN080
     FM240200 30008KT P6SM BKN100
     FM241600 29012G18KT P6SM BKN100=

USA.gov is the U.S. government's official web portal to all federal, state and local government web resources and services.